Time;durP1;ratioP1;P1;durP2;ratioP2;P2;SDS_P1;SDS_P2;PMS_P1;PMS_P2;Temp;Humidity;BMP_temperature;BMP_pressure;BME280_temperature;BME280_humidity;BME280_pressure;Samples;Min_cycle;Max_cycle;Signal;HPM_P1;HPM_P2
2022/05/04 00:00:23;;;;;;;5.55;3.40;;;;;;;10.05;61.55;101180.16;7400362;19;20018;-64
2022/05/04 00:02:52;;;;;;;4.72;3.53;;;;;;;10.02;61.70;101184.56;7400757;19;20039;-64
2022/05/04 00:05:22;;;;;;;5.47;3.83;;;;;;;9.99;61.93;101189.88;7400385;19;20006;-64
2022/05/04 00:07:51;;;;;;;4.15;3.25;;;;;;;9.95;61.95;101184.63;7398069;19;20015;-64
2022/05/04 00:10:19;;;;;;;3.67;3.35;;;;;;;9.92;61.96;101186.41;7399526;19;20580;-64
2022/05/04 00:12:47;;;;;;;6.07;3.72;;;;;;;9.89;62.16;101182.09;7400504;19;20014;-64
2022/05/04 00:15:15;;;;;;;7.25;3.95;;;;;;;9.87;62.37;101181.25;7400349;19;20022;-64
2022/05/04 00:17:43;;;;;;;7.32;3.50;;;;;;;9.82;62.47;101183.06;7399094;19;20031;-65
2022/05/04 00:20:13;;;;;;;4.88;3.63;;;;;;;9.80;62.66;101184.81;7397644;19;20026;-64
2022/05/04 00:22:43;;;;;;;5.32;3.40;;;;;;;9.78;62.71;101191.81;7399736;19;20462;-64
2022/05/04 00:25:12;;;;;;;5.22;3.58;;;;;;;9.74;62.71;101188.41;7397962;19;20046;-65
2022/05/04 00:27:40;;;;;;;4.07;3.65;;;;;;;9.71;62.87;101190.19;7399509;19;20481;-65
2022/05/04 00:30:10;;;;;;;6.78;3.92;;;;;;;9.68;63.01;101188.47;7395472;19;20022;-64
2022/05/04 00:32:38;;;;;;;3.70;3.30;;;;;;;9.66;63.32;101186.75;7397370;19;20022;-64
2022/05/04 00:35:07;;;;;;;6.00;4.07;;;;;;;9.66;63.48;101184.97;7399586;19;20018;-64
2022/05/04 00:37:35;;;;;;;4.90;3.60;;;;;;;9.65;63.48;101190.25;7397096;19;20023;-64
2022/05/04 00:40:07;;;;;;;4.60;3.63;;;;;;;9.65;63.84;101191.09;7398689;19;20036;-64
2022/05/04 00:42:35;;;;;;;4.30;3.53;;;;;;;9.64;63.79;101189.34;7399091;19;20496;-64
2022/05/04 00:45:04;;;;;;;5.22;3.83;;;;;;;9.67;63.84;101183.22;7399262;19;20018;-64
2022/05/04 00:47:32;;;;;;;4.18;3.78;;;;;;;9.69;63.89;101186.69;7396983;19;20024;-64
2022/05/04 00:50:07;;;;;;;4.47;3.65;;;;;;;9.70;63.85;101180.59;7396295;19;20474;-64
2022/05/04 00:52:37;;;;;;;5.75;3.63;;;;;;;9.74;63.94;101180.53;7397199;19;20035;-64
2022/05/04 00:55:10;;;;;;;4.50;4.07;;;;;;;9.76;63.84;101189.22;7398959;19;20022;-64
2022/05/04 01:00:22;;;;;;;5.37;4.43;;;;;;;9.77;63.73;101190.97;7398134;19;20011;-64
2022/05/04 01:02:50;;;;;;;6.28;4.43;;;;;;;9.76;63.80;101189.22;7396638;19;20085;-64
2022/05/04 01:05:19;;;;;;;6.25;4.97;;;;;;;9.79;63.86;101193.56;7398289;19;20411;-64
2022/05/04 01:07:54;;;;;;;5.90;5.00;;;;;;;9.81;63.92;101197.06;7396528;19;20013;-63
2022/05/04 01:10:25;;;;;;;6.60;4.88;;;;;;;9.81;64.03;101191.81;7397540;19;20021;-64
2022/05/04 01:12:54;;;;;;;6.70;4.72;;;;;;;9.82;64.01;101187.41;7400433;19;20410;-63
2022/05/04 01:15:25;;;;;;;7.93;5.15;;;;;;;9.83;64.07;101186.53;7396213;19;20026;-64
2022/05/04 01:17:53;;;;;;;7.03;5.00;;;;;;;9.84;64.04;101189.13;7397855;19;20347;-65
2022/05/04 01:20:24;;;;;;;5.50;4.82;;;;;;;9.86;64.20;101190.00;7397284;19;20035;-64
2022/05/04 01:22:55;;;;;;;5.68;4.78;;;;;;;9.86;64.46;101187.38;7396214;19;20023;-65
2022/05/04 01:25:23;;;;;;;6.13;4.65;;;;;;;9.87;64.41;101185.63;7396415;19;20019;-64
2022/05/04 01:27:51;;;;;;;11.90;4.90;;;;;;;9.88;64.33;101185.63;7397952;19;20019;-65
2022/05/04 01:30:20;;;;;;;6.18;4.70;;;;;;;9.90;64.49;101185.59;7395348;19;20351;-64
2022/05/04 01:32:48;;;;;;;5.80;5.20;;;;;;;9.90;64.57;101185.59;7397911;19;20039;-64
2022/05/04 01:35:17;;;;;;;5.00;4.18;;;;;;;9.89;64.84;101184.72;7397601;19;20014;-65
2022/05/04 01:37:45;;;;;;;5.82;5.22;;;;;;;9.90;64.72;101188.22;7397084;19;20042;-64
2022/05/04 01:40:15;;;;;;;8.60;4.90;;;;;;;9.91;64.83;101187.34;7396625;19;20042;-64
2022/05/04 01:42:44;;;;;;;5.93;4.97;;;;;;;9.91;64.59;101192.56;7397880;19;20119;-64
2022/05/04 01:45:12;;;;;;;13.55;5.50;;;;;;;9.91;64.85;101193.44;7395436;19;20014;-64
2022/05/04 01:47:41;;;;;;;7.65;5.82;;;;;;;9.90;64.90;101186.44;7395437;19;20042;-64
2022/05/04 01:50:09;;;;;;;6.35;4.82;;;;;;;9.92;64.81;101186.41;7394927;19;20412;-64
2022/05/04 01:52:37;;;;;;;5.72;4.90;;;;;;;9.90;64.98;101178.59;7396723;19;20489;-64
2022/05/04 01:55:07;;;;;;;7.15;5.07;;;;;;;9.90;65.15;101189.06;7396943;19;20022;-64
2022/05/04 01:57:37;;;;;;;8.30;5.05;;;;;;;9.90;65.07;101178.59;7396672;19;20030;-64
2022/05/04 02:00:07;;;;;;;7.00;5.43;;;;;;;9.90;65.19;101180.34;7396570;19;20026;-63
2022/05/04 02:02:36;;;;;;;6.75;5.50;;;;;;;9.91;65.16;101188.19;7397462;19;20031;-63
2022/05/04 02:05:07;;;;;;;7.47;5.10;;;;;;;9.89;65.50;101187.34;7396289;19;20407;-63
2022/05/04 02:07:37;;;;;;;4.93;4.43;;;;;;;9.90;65.34;101190.84;7395169;19;20368;-65
2022/05/04 02:10:05;;;;;;;5.82;4.95;;;;;;;9.89;65.29;101183.84;7395878;19;20015;-64
2022/05/04 02:12:35;;;;;;;9.70;6.13;;;;;;;9.88;65.41;101183.00;7396150;19;20553;-64
2022/05/04 02:15:08;;;;;;;6.97;5.95;;;;;;;9.88;65.52;101176.88;7394857;19;20394;-64
2022/05/04 02:17:36;;;;;;;6.60;5.93;;;;;;;9.89;65.53;101182.09;7395946;19;20014;-64
2022/05/04 02:20:06;;;;;;;7.13;5.40;;;;;;;9.90;65.50;101181.22;7395112;19;20044;-64
2022/05/04 02:22:34;;;;;;;8.50;5.72;;;;;;;9.92;65.73;101179.44;7395956;19;20240;-64
2022/05/04 02:25:02;;;;;;;7.82;5.93;;;;;;;9.94;65.59;101177.69;7395968;19;20032;-64
2022/05/04 02:27:31;;;;;;;6.30;5.13;;;;;;;9.96;65.77;101172.41;7396050;19;20019;-64
2022/05/04 02:29:59;;;;;;;7.65;6.47;;;;;;;9.97;65.78;101175.91;7395265;19;20081;-64
2022/05/04 02:32:29;;;;;;;8.80;5.93;;;;;;;9.95;65.66;101173.31;7395104;19;20471;-65
2022/05/04 02:40:19;;;;;;;5.82;5.22;;;;;;;9.90;66.08;101180.34;7395438;19;20485;-64
2022/05/04 02:42:47;;;;;;;7.93;5.90;;;;;;;9.86;66.11;101190.00;7395604;19;20031;-64
2022/05/04 02:45:15;;;;;;;9.45;6.18;;;;;;;9.82;66.18;101187.41;7395495;19;20025;-64
2022/05/04 02:47:46;;;;;;;8.35;5.38;;;;;;;9.81;66.24;101183.94;7393702;19;20018;-64
2022/05/04 02:50:14;;;;;;;6.85;6.15;;;;;;;9.79;66.16;101177.84;7394974;19;20018;-65
2022/05/04 02:52:42;;;;;;;8.48;6.57;;;;;;;9.79;66.38;101183.09;7393635;19;20360;-64
2022/05/04 02:55:11;;;;;;;8.07;6.15;;;;;;;9.78;66.27;101181.34;7393524;19;20036;-64
2022/05/04 02:57:39;;;;;;;7.18;5.85;;;;;;;9.78;66.29;101186.59;7395155;19;20027;-64
2022/05/04 03:00:09;;;;;;;7.72;5.75;;;;;;;9.79;66.28;101185.72;7394823;19;20510;-64
2022/05/04 03:02:34;;;;;;;8.13;6.28;;;;;;;9.77;66.43;101195.34;7394965;19;20024;-64
2022/05/04 03:05:07;;;;;;;7.22;6.07;;;;;;;9.75;66.60;101191.88;7394580;19;20433;-64
2022/05/04 03:07:35;;;;;;;7.00;6.30;;;;;;;9.76;66.49;101191.00;7393420;19;20015;-64
2022/05/04 03:10:04;;;;;;;8.57;6.78;;;;;;;9.76;66.51;101193.63;7394283;19;20018;-64
2022/05/04 03:12:32;;;;;;;6.68;6.00;;;;;;;9.75;66.73;101191.88;7392865;19;20455;-64
2022/05/04 03:15:00;;;;;;;7.40;6.13;;;;;;;9.75;66.72;101191.88;7394635;19;20035;-64
2022/05/04 03:17:28;;;;;;;7.95;6.22;;;;;;;9.73;66.69;101189.28;7394470;19;20039;-65
2022/05/04 03:19:58;;;;;;;7.35;6.15;;;;;;;9.73;66.65;101188.38;7392321;19;20022;-64
2022/05/04 03:22:29;;;;;;;8.50;6.72;;;;;;;9.71;66.83;101185.78;7394212;19;20018;-64
2022/05/04 03:24:58;;;;;;;7.75;6.80;;;;;;;9.69;66.95;101186.69;7392811;19;20068;-64
2022/05/04 03:27:26;;;;;;;7.90;7.10;;;;;;;9.66;67.22;101182.38;7394137;19;20021;-64
2022/05/04 03:29:55;;;;;;;7.80;6.40;;;;;;;9.61;67.21;101182.41;7393439;19;20018;-65
2022/05/04 03:32:23;;;;;;;6.93;6.30;;;;;;;9.60;67.26;101188.56;7393597;19;20425;-69
2022/05/04 03:34:52;;;;;;;10.30;7.30;;;;;;;9.59;67.69;101185.91;7393982;19;20060;-65
2022/05/04 03:37:20;;;;;;;11.35;7.18;;;;;;;9.56;67.57;101178.97;7392660;19;20508;-65
2022/05/04 03:39:50;;;;;;;8.95;7.10;;;;;;;9.54;67.78;101183.38;7391114;19;20015;-64
2022/05/04 03:42:18;;;;;;;8.30;7.47;;;;;;;9.52;67.64;101189.50;7391970;19;20022;-64
2022/05/04 03:44:47;;;;;;;8.88;6.80;;;;;;;9.50;67.73;101192.13;7392466;19;20014;-64
2022/05/04 03:47:15;;;;;;;8.88;7.13;;;;;;;9.48;67.75;101187.78;7393297;19;20388;-65
2022/05/04 03:49:43;;;;;;;7.70;6.88;;;;;;;9.47;68.01;101186.94;7393350;19;20026;-64
2022/05/04 03:52:11;;;;;;;11.40;7.13;;;;;;;9.47;68.04;101191.31;7393189;19;20039;-64
2022/05/04 03:54:39;;;;;;;12.90;7.05;;;;;;;9.46;68.05;101185.19;7391117;19;20014;-64
2022/05/04 03:57:10;;;;;;;11.70;7.45;;;;;;;9.47;68.16;101186.94;7391077;19;20010;-64
2022/05/04 03:59:38;;;;;;;10.82;7.10;;;;;;;9.49;68.11;101186.91;7391827;19;20019;-64
2022/05/04 04:02:07;;;;;;;8.88;7.38;;;;;;;9.51;68.15;101182.53;7392611;19;20423;-64
2022/05/04 04:04:35;;;;;;;11.00;7.70;;;;;;;9.51;68.05;101182.53;7396916;19;20022;-65
2022/05/04 04:07:03;;;;;;;9.48;7.00;;;;;;;9.53;68.12;101181.63;7397033;19;20018;-64
2022/05/04 04:09:31;;;;;;;10.82;7.97;;;;;;;9.55;68.25;101195.56;7399736;19;20023;-65
2022/05/04 04:12:00;;;;;;;8.20;7.40;;;;;;;9.58;68.08;101195.53;7399830;19;20035;-65
2022/05/04 04:14:31;;;;;;;10.25;7.57;;;;;;;9.59;68.36;101191.16;7400183;19;20022;-65
2022/05/04 04:16:59;;;;;;;11.93;8.15;;;;;;;9.60;68.19;101193.78;7400496;19;20011;-65
2022/05/04 04:19:27;;;;;;;9.35;7.30;;;;;;;9.61;68.16;101205.97;7396900;19;20027;-65
2022/05/04 04:21:53;;;;;;;9.07;7.10;;;;;;;9.62;68.20;101214.72;7399822;19;20022;-65
2022/05/04 04:24:22;;;;;;;8.45;7.15;;;;;;;9.61;68.45;101219.06;7399541;19;20388;-65
2022/05/04 04:26:50;;;;;;;11.05;7.57;;;;;;;9.60;68.50;101220.00;7398975;19;20477;-65
2022/05/04 04:29:19;;;;;;;9.43;7.25;;;;;;;9.60;68.71;101227.84;7397845;19;20027;-65
2022/05/04 04:31:49;;;;;;;10.07;7.68;;;;;;;9.58;68.93;101232.22;7396474;19;20014;-65
2022/05/04 04:34:17;;;;;;;8.50;7.63;;;;;;;9.54;68.78;101219.16;7396281;19;20026;-64
2022/05/04 04:36:45;;;;;;;8.63;7.30;;;;;;;9.55;68.79;101229.63;7398809;19;20035;-65
2022/05/04 04:39:14;;;;;;;8.32;7.47;;;;;;;9.51;68.79;101225.28;7397996;19;20026;-65
2022/05/04 04:41:42;;;;;;;8.93;7.47;;;;;;;9.49;68.81;101229.69;7396676;19;20023;-65
2022/05/04 04:44:11;;;;;;;12.98;8.25;;;;;;;9.49;68.72;101228.81;7396490;19;20014;-65
2022/05/04 04:46:39;;;;;;;9.82;8.45;;;;;;;9.49;68.84;101227.09;7396258;19;20031;-65
2022/05/04 04:49:09;;;;;;;61.83;37.80;;;;;;;9.54;68.98;101227.00;7398919;19;20031;-65
2022/05/04 04:51:37;;;;;;;10.52;9.35;;;;;;;9.58;68.88;101228.75;7395443;19;20361;-65
2022/05/04 04:54:06;;;;;;;12.45;8.07;;;;;;;9.62;68.77;101238.31;7396136;19;20112;-65
2022/05/04 04:56:34;;;;;;;11.65;7.90;;;;;;;9.64;68.80;101230.41;7395330;19;20024;-65
2022/05/04 04:59:02;;;;;;;9.10;7.47;;;;;;;9.66;68.83;101226.91;7397207;19;20018;-65
2022/05/04 05:01:30;;;;;;;12.27;7.70;;;;;;;9.68;68.72;101230.38;7395032;19;20010;-65
2022/05/04 05:03:58;;;;;;;9.02;7.47;;;;;;;9.70;68.48;101232.97;7395096;19;20023;-65
2022/05/04 05:06:30;;;;;;;8.98;8.07;;;;;;;9.72;68.49;101234.69;7395355;19;20026;-64
2022/05/04 05:08:58;;;;;;;13.57;7.60;;;;;;;9.76;68.71;101239.03;7394207;19;20025;-65
2022/05/04 05:11:26;;;;;;;8.63;6.70;;;;;;;9.81;68.84;101233.75;7394143;19;20039;-65
2022/05/04 05:16:35;;;;;;;10.05;8.30;;;;;;;9.84;68.58;101236.31;7396544;19;20014;-65
2022/05/04 05:19:03;;;;;;;11.07;8.00;;;;;;;9.84;68.75;101238.06;7394367;19;20018;-65
2022/05/04 05:21:34;;;;;;;8.88;7.55;;;;;;;9.83;68.62;101233.72;7394529;19;20039;-64
2022/05/04 05:24:02;;;;;;;12.68;8.48;;;;;;;9.85;68.91;101230.19;7397058;19;20035;-65
2022/05/04 05:26:30;;;;;;;10.88;8.35;;;;;;;9.89;68.80;101237.13;7395023;19;20039;-65
2022/05/04 05:28:58;;;;;;;9.85;7.68;;;;;;;9.94;68.82;101235.34;7396860;19;20021;-65
2022/05/04 05:31:26;;;;;;;9.45;7.82;;;;;;;9.98;68.90;101240.53;7395250;19;20038;-66
2022/05/04 05:33:55;;;;;;;9.32;7.80;;;;;;;10.00;68.94;101233.53;7396918;19;20018;-66
2022/05/04 05:36:23;;;;;;;10.05;8.30;;;;;;;10.02;68.94;101237.00;7397119;19;20018;-66
2022/05/04 05:38:54;;;;;;;10.80;8.48;;;;;;;10.01;69.71;101245.75;7395950;19;20018;-68
2022/05/04 05:41:23;;;;;;;9.98;8.77;;;;;;;9.98;69.43;101257.13;7394336;19;20018;-64
2022/05/04 05:43:52;;;;;;;10.35;8.25;;;;;;;9.98;69.22;101249.25;7395326;19;20018;-65
2022/05/04 05:46:20;;;;;;;17.65;8.75;;;;;;;10.02;69.40;101248.38;7394625;19;20395;-64
2022/05/04 05:48:48;;;;;;;12.93;9.85;;;;;;;10.05;69.36;101247.47;7396998;19;20018;-64
2022/05/04 05:51:16;;;;;;;9.77;8.52;;;;;;;10.08;69.54;101247.41;7394994;19;20037;-65
2022/05/04 05:53:44;;;;;;;10.93;8.65;;;;;;;10.09;69.52;101251.78;7395240;19;20035;-64
2022/05/04 05:56:21;;;;;;;11.27;8.23;;;;;;;10.08;69.60;101243.06;7394333;19;20473;-65
2022/05/04 05:58:49;;;;;;;8.60;7.50;;;;;;;10.06;69.71;101244.81;7393974;19;20022;-65
2022/05/04 06:01:18;;;;;;;11.70;8.35;;;;;;;10.05;69.59;101244.84;7394457;19;20112;-65
2022/05/04 06:03:46;;;;;;;8.93;7.82;;;;;;;10.06;69.61;101249.19;7395425;19;20011;-65
2022/05/04 06:06:14;;;;;;;9.80;8.77;;;;;;;10.10;69.73;101256.13;7395560;19;20018;-64
2022/05/04 06:08:43;;;;;;;10.35;9.15;;;;;;;10.14;69.79;101247.34;7393858;19;20024;-65
2022/05/04 06:11:11;;;;;;;11.57;8.40;;;;;;;10.16;69.69;101242.97;7394179;19;20022;-64
2022/05/04 06:13:41;;;;;;;9.35;8.38;;;;;;;10.20;69.76;101252.53;7395600;19;20031;-66
2022/05/04 06:16:10;;;;;;;9.68;8.70;;;;;;;10.24;69.59;101241.09;7396154;19;20031;-64
2022/05/04 06:18:38;;;;;;;11.18;8.52;;;;;;;10.27;69.36;101248.94;7394028;19;20019;-64
2022/05/04 06:21:06;;;;;;;12.30;8.10;;;;;;;10.32;69.37;101246.25;7392983;19;20465;-64
2022/05/04 06:23:34;;;;;;;9.13;8.23;;;;;;;10.36;69.53;101239.25;7394791;19;20411;-65
2022/05/04 06:26:02;;;;;;;9.85;8.05;;;;;;;10.38;69.30;101246.19;7394064;19;20035;-67
2022/05/04 06:28:30;;;;;;;9.73;8.05;;;;;;;10.42;69.22;101247.88;7394589;19;20035;-65
2022/05/04 06:36:22;;;;;;;12.38;9.15;;;;;;;10.64;68.99;101250.25;7395712;19;20029;-63
2022/05/04 06:38:50;;;;;;;11.50;8.23;;;;;;;10.70;68.85;101241.41;7392863;19;20035;-68
2022/05/04 06:41:18;;;;;;;12.43;9.48;;;;;;;10.77;68.72;101250.94;7393412;19;20026;-65
2022/05/04 06:43:47;;;;;;;11.32;8.02;;;;;;;10.84;68.57;101247.34;7395153;19;20035;-63
2022/05/04 06:46:24;;;;;;;8.90;8.00;;;;;;;10.94;68.52;101249.81;7392855;19;20033;-64
2022/05/04 06:48:52;;;;;;;14.60;8.40;;;;;;;10.97;68.23;101240.16;7394945;19;20015;-64
2022/05/04 06:51:20;;;;;;;9.70;8.43;;;;;;;11.06;68.18;101245.25;7393356;19;20022;-64
2022/05/04 06:53:49;;;;;;;9.63;7.82;;;;;;;11.12;67.93;101248.66;7392731;19;20571;-64
2022/05/04 06:56:17;;;;;;;8.98;7.85;;;;;;;11.17;68.13;101252.97;7393103;19;20022;-65
2022/05/04 06:58:45;;;;;;;8.90;7.43;;;;;;;11.23;67.83;101246.72;7394090;19;20022;-64
2022/05/04 07:01:14;;;;;;;12.13;7.53;;;;;;;11.29;67.55;101236.13;7393682;19;20018;-64
2022/05/04 07:03:44;;;;;;;10.50;7.93;;;;;;;11.36;67.41;101243.00;7392540;19;20031;-65
2022/05/04 07:06:12;;;;;;;9.85;8.57;;;;;;;11.43;67.17;101241.13;7392873;19;20018;-65
2022/05/04 07:08:41;;;;;;;12.15;8.10;;;;;;;11.49;67.04;101241.03;7392247;19;20415;-64
2022/05/04 07:11:09;;;;;;;14.50;7.80;;;;;;;11.56;67.02;101240.03;7392647;19;20414;-65
2022/05/04 07:13:38;;;;;;;11.57;8.48;;;;;;;11.64;66.75;101241.63;7392698;19;20537;-64
2022/05/04 07:16:08;;;;;;;9.65;7.40;;;;;;;11.71;66.64;101246.78;7391091;19;20022;-66
2022/05/04 07:18:36;;;;;;;10.23;7.68;;;;;;;11.78;66.35;101242.28;7393329;19;20478;-65
2022/05/04 07:21:07;;;;;;;9.75;7.20;;;;;;;11.86;66.24;101248.22;7392032;19;20042;-64
2022/05/04 07:23:35;;;;;;;13.77;7.80;;;;;;;11.94;65.88;101245.44;7391564;19;20532;-64
2022/05/04 07:26:03;;;;;;;12.55;7.45;;;;;;;12.01;65.71;101246.25;7394702;19;20035;-63
2022/05/04 07:28:31;;;;;;;12.45;7.40;;;;;;;12.08;65.49;101247.88;7391738;19;20028;-64
2022/05/04 07:30:59;;;;;;;8.77;6.68;;;;;;;12.15;65.37;101244.19;7392611;19;20474;-64
2022/05/04 07:33:27;;;;;;;7.38;6.55;;;;;;;12.25;64.97;101246.66;7391197;19;20401;-64
2022/05/04 07:35:55;;;;;;;8.57;7.15;;;;;;;12.34;64.58;101243.81;7391058;19;20023;-64
2022/05/04 07:38:26;;;;;;;9.45;6.68;;;;;;;12.43;64.27;101238.34;7393446;19;20018;-65
2022/05/04 07:43:35;;;;;;;9.23;7.13;;;;;;;12.64;63.59;101244.06;7400959;19;20034;-64
2022/05/04 07:46:03;;;;;;;14.38;8.05;;;;;;;12.73;63.02;101238.59;7400438;19;20026;-64
2022/05/04 07:48:31;;;;;;;9.82;6.80;;;;;;;12.80;62.62;101239.31;7400283;19;20014;-64
2022/05/04 07:50:59;;;;;;;9.93;6.60;;;;;;;12.89;62.15;101244.38;7397827;19;20022;-63
2022/05/04 07:53:30;;;;;;;7.25;6.28;;;;;;;12.97;61.88;101237.16;7400505;19;20035;-65
2022/05/04 07:55:58;;;;;;;9.23;6.32;;;;;;;13.07;61.37;101245.69;7401256;19;20026;-64
2022/05/04 07:58:26;;;;;;;7.65;6.85;;;;;;;13.16;60.80;101247.25;7400519;19;20023;-64
2022/05/04 08:06:15;;;;;;;8.00;5.22;;;;;;;13.40;59.46;101239.66;7400963;19;20033;-64
2022/05/04 08:08:46;;;;;;;6.85;5.55;;;;;;;13.48;59.03;101240.31;7398110;19;20028;-64
2022/05/04 08:11:14;;;;;;;5.10;4.60;;;;;;;13.56;58.76;101237.47;7398663;19;20022;-65
2022/05/04 08:13:42;;;;;;;6.18;5.45;;;;;;;13.63;58.50;101242.53;7400237;19;20039;-64
2022/05/04 08:16:11;;;;;;;6.75;5.20;;;;;;;13.72;58.16;101237.94;7399987;19;20035;-64
2022/05/04 08:18:40;;;;;;;7.28;5.22;;;;;;;13.79;57.91;101237.75;7397308;19;20015;-64
2022/05/04 08:21:08;;;;;;;11.88;5.38;;;;;;;13.89;57.63;101245.38;7398461;19;20074;-64
2022/05/04 08:23:37;;;;;;;16.30;5.55;;;;;;;13.98;57.46;101239.88;7400193;19;20391;-64
2022/05/04 08:26:08;;;;;;;6.40;4.82;;;;;;;14.07;56.85;101242.25;7396782;19;20022;-64
2022/05/04 08:28:36;;;;;;;15.85;5.22;;;;;;;14.18;56.28;101241.94;7399204;19;20394;-66
2022/05/04 08:31:04;;;;;;;8.55;4.70;;;;;;;14.26;55.93;101245.22;7397870;19;20014;-64
2022/05/04 08:33:32;;;;;;;17.23;6.10;;;;;;;14.35;55.84;101241.44;7396677;19;20040;-64
2022/05/04 08:36:00;;;;;;;7.90;4.65;;;;;;;14.43;55.49;101242.09;7399138;19;20022;-64
2022/05/04 08:38:28;;;;;;;6.60;4.30;;;;;;;14.52;55.02;101246.22;7398770;19;20040;-64
2022/05/04 08:40:58;;;;;;;6.43;4.93;;;;;;;14.59;54.82;101244.25;7397346;19;20018;-64
2022/05/04 08:43:29;;;;;;;17.15;4.97;;;;;;;14.69;54.46;101243.09;7396583;19;20215;-65
2022/05/04 08:45:58;;;;;;;5.43;4.68;;;;;;;14.78;53.91;101237.50;7398636;19;20027;-65
2022/05/04 08:48:28;;;;;;;6.43;5.20;;;;;;;14.86;53.73;101233.78;7398873;19;20015;-64
2022/05/04 08:50:57;;;;;;;8.90;4.32;;;;;;;14.93;53.10;101232.69;7396206;19;20022;-66
2022/05/04 08:53:27;;;;;;;7.75;4.75;;;;;;;15.01;52.83;101233.28;7399124;19;20043;-65
2022/05/04 08:55:57;;;;;;;7.25;4.57;;;;;;;15.09;52.42;101239.19;7399475;19;20031;-64
2022/05/04 08:58:25;;;;;;;6.80;4.32;;;;;;;15.17;52.40;101238.09;7398613;19;20035;-64
2022/05/04 09:00:56;;;;;;;8.68;5.40;;;;;;;15.26;51.89;101238.63;7396516;19;20507;-64
2022/05/04 09:03:24;;;;;;;5.85;3.95;;;;;;;15.34;51.51;101233.06;7396927;19;20369;-64
2022/05/04 09:05:56;;;;;;;6.05;4.55;;;;;;;15.42;51.41;101228.41;7396153;19;20018;-64
2022/05/04 09:08:24;;;;;;;6.07;3.80;;;;;;;15.53;50.83;101235.09;7395108;19;20031;-65
2022/05/04 09:10:53;;;;;;;6.78;3.80;;;;;;;15.62;50.47;101225.06;7394783;19;20378;-64
2022/05/04 09:13:22;;;;;;;6.93;3.75;;;;;;;15.74;50.25;101231.69;7394508;19;20428;-65
2022/05/04 09:15:51;;;;;;;5.22;3.72;;;;;;;15.84;49.54;101226.13;7397719;19;20035;-63
2022/05/04 09:18:21;;;;;;;3.97;3.50;;;;;;;15.94;49.01;101219.56;7396327;19;20021;-63
2022/05/04 09:20:53;;;;;;;4.53;3.35;;;;;;;16.03;48.85;101213.94;7395163;19;20517;-63
2022/05/04 09:23:24;;;;;;;5.93;4.28;;;;;;;16.15;48.66;101211.75;7394480;19;20014;-63
2022/05/04 09:25:53;;;;;;;7.63;3.88;;;;;;;16.26;48.93;101210.44;7398314;19;20054;-64
2022/05/04 09:28:24;;;;;;;23.13;12.32;;;;;;;16.40;48.72;101209.91;7397338;19;20051;-64
2022/05/04 09:30:54;;;;;;;6.75;4.88;;;;;;;16.53;48.17;101206.75;7395222;19;20041;-65
2022/05/04 09:33:27;;;;;;;7.22;4.00;;;;;;;16.64;47.76;101209.84;7393968;19;20018;-64
2022/05/04 09:35:57;;;;;;;5.60;3.65;;;;;;;16.74;47.31;101210.34;7395955;19;20520;-65
2022/05/04 09:46:39;;;;;;;6.93;5.22;;;;;;;17.27;46.02;101198.47;7396596;19;20019;-64
2022/05/04 09:49:18;;;;;;;6.20;3.92;;;;;;;17.44;44.95;101200.41;7397010;19;20031;-65
2022/05/04 09:51:50;;;;;;;5.75;3.78;;;;;;;17.62;45.32;101197.91;7394616;19;20019;-64
2022/05/04 09:54:20;;;;;;;8.82;3.95;;;;;;;17.77;44.85;101193.66;7395153;19;20019;-64
2022/05/04 09:56:50;;;;;;;3.78;3.42;;;;;;;17.89;44.32;101193.13;7396900;19;20035;-64
2022/05/04 09:59:20;;;;;;;4.22;2.75;;;;;;;18.00;43.83;101184.72;7396419;19;20042;-63
2022/05/04 10:01:50;;;;;;;9.80;3.28;;;;;;;18.12;44.00;101183.28;7390582;19;20015;-63
2022/05/04 10:04:23;;;;;;;4.68;2.63;;;;;;;18.23;42.92;101178.31;7394402;19;20022;-64
2022/05/04 10:06:51;;;;;;;6.43;3.95;;;;;;;18.32;42.54;101188.50;7393050;19;20481;-64
2022/05/04 10:09:21;;;;;;;4.97;3.47;;;;;;;18.38;42.17;101188.22;7393937;19;20032;-64
2022/05/04 10:11:53;;;;;;;7.55;3.42;;;;;;;18.40;42.55;101183.72;7394065;19;20018;-64
2022/05/04 10:14:22;;;;;;;5.25;3.25;;;;;;;18.45;42.55;101179.97;7394247;19;20016;-64
2022/05/04 10:16:55;;;;;;;5.57;3.28;;;;;;;18.53;41.58;101181.31;7395373;19;20379;-64
2022/05/04 10:19:31;;;;;;;5.45;3.13;;;;;;;18.60;40.77;101181.88;7395784;19;20022;-65
2022/05/04 10:22:03;;;;;;;5.13;3.25;;;;;;;18.66;41.29;101176.25;7393243;19;20496;-64
2022/05/04 10:24:35;;;;;;;6.03;3.50;;;;;;;18.68;41.23;101177.06;7394243;19;20482;-64
2022/05/04 10:27:05;;;;;;;6.63;3.75;;;;;;;18.71;41.16;101173.38;7393844;19;20015;-65
2022/05/04 10:32:41;;;;;;;7.60;3.15;;;;;;;18.87;39.96;101179.66;7395280;19;20038;-65
2022/05/04 10:35:22;;;;;;;5.13;2.72;;;;;;;18.96;40.51;101172.22;7393251;19;20035;-65
2022/05/04 10:38:07;;;;;;;3.63;3.13;;;;;;;19.04;40.29;101176.22;7395234;19;20033;-65
2022/05/04 10:40:36;;;;;;;4.85;2.67;;;;;;;19.16;40.39;101176.53;7393476;19;20025;-65
2022/05/04 10:43:06;;;;;;;3.35;2.25;;;;;;;19.24;39.63;101171.66;7394956;19;20530;-65
2022/05/04 10:45:36;;;;;;;5.00;2.80;;;;;;;19.33;39.94;101178.31;7393488;19;20031;-65
2022/05/04 10:48:25;;;;;;;3.90;2.30;;;;;;;19.42;38.56;101177.81;7395061;19;20023;-66
2022/05/04 10:51:00;;;;;;;5.00;3.22;;;;;;;19.51;39.51;101172.03;7393458;19;20040;-67
2022/05/04 10:53:40;;;;;;;5.85;3.72;;;;;;;19.61;39.12;101169.72;7395090;19;20022;-67
2022/05/04 10:56:12;;;;;;;4.88;2.33;;;;;;;19.72;38.44;101173.63;7394445;19;20031;-66
2022/05/04 10:58:44;;;;;;;3.78;2.72;;;;;;;19.77;38.22;101163.59;7392438;19;20362;-68
2022/05/04 11:01:15;;;;;;;4.25;2.65;;;;;;;19.82;38.06;101166.88;7392651;19;20019;-66
2022/05/04 11:03:57;;;;;;;4.97;2.60;;;;;;;19.89;37.63;101162.09;7392577;19;20018;-66
2022/05/04 11:06:34;;;;;;;2.75;2.35;;;;;;;19.94;37.17;101158.25;7394154;19;20517;-65
2022/05/04 11:09:07;;;;;;;4.38;2.22;;;;;;;20.04;37.95;101152.41;7392700;19;20007;-67
2022/05/04 11:11:36;;;;;;;4.07;2.10;;;;;;;20.16;37.81;101151.75;7392608;19;20015;-67
2022/05/04 11:14:05;;;;;;;3.33;2.35;;;;;;;20.27;37.52;101145.78;7396058;19;20018;-66
2022/05/04 11:16:34;;;;;;;2.78;2.40;;;;;;;20.34;36.99;101142.69;7397204;19;20381;-67
2022/05/04 11:19:03;;;;;;;3.10;2.53;;;;;;;20.40;36.77;101146.84;7397762;19;20023;-68
2022/05/04 11:21:35;;;;;;;3.88;1.85;;;;;;;20.43;36.68;101149.31;7397841;19;20087;-66
2022/05/04 11:24:05;;;;;;;3.28;2.55;;;;;;;20.47;36.77;101142.00;7400617;19;20015;-68
2022/05/04 11:26:38;;;;;;;3.20;2.28;;;;;;;20.46;36.56;101141.16;7401285;19;20027;-68
2022/05/04 11:29:10;;;;;;;5.35;3.00;;;;;;;20.44;35.71;101142.19;7401299;19;20031;-68
2022/05/04 11:31:39;;;;;;;3.15;2.30;;;;;;;20.44;36.51;101143.03;7397751;19;20511;-67
2022/05/04 11:34:07;;;;;;;25.02;4.05;;;;;;;20.48;36.23;101136.56;7397478;19;20018;-66
2022/05/04 11:36:37;;;;;;;12.27;3.80;;;;;;;20.58;36.09;101139.59;7397623;19;20031;-66
2022/05/04 11:39:06;;;;;;;6.00;3.25;;;;;;;20.66;36.34;101131.13;7400303;19;20058;-66
2022/05/04 11:41:34;;;;;;;4.38;2.13;;;;;;;20.77;35.84;101135.88;7396323;19;20364;-65
2022/05/04 11:44:09;;;;;;;5.40;2.30;;;;;;;20.86;35.93;101127.34;7397613;19;20418;-67
2022/05/04 11:46:38;;;;;;;7.28;4.30;;;;;;;20.94;36.03;101134.88;7401610;19;20035;-66
2022/05/04 11:49:11;;;;;;;6.15;3.60;;;;;;;21.02;35.69;101131.78;7397764;19;20022;-67
2022/05/04 11:51:42;;;;;;;3.75;2.47;;;;;;;21.08;35.73;101124.25;7397475;19;20421;-67
2022/05/04 11:54:10;;;;;;;3.70;2.97;;;;;;;21.16;35.36;101121.97;7398302;19;20015;-67
2022/05/04 11:56:39;;;;;;;3.55;2.83;;;;;;;21.23;35.55;101119.81;7401069;19;20022;-65
2022/05/04 11:59:07;;;;;;;4.63;3.60;;;;;;;21.31;34.74;101112.19;7400214;19;20018;-67
2022/05/04 12:01:36;;;;;;;5.35;3.13;;;;;;;21.40;34.55;101109.91;7398033;19;20038;-67
2022/05/04 12:04:05;;;;;;;3.60;2.45;;;;;;;21.49;34.81;101107.50;7399586;19;20493;-65
2022/05/04 12:06:34;;;;;;;4.28;2.53;;;;;;;21.62;34.64;101104.13;7400131;19;20047;-68
2022/05/04 12:09:05;;;;;;;6.15;2.72;;;;;;;21.80;34.34;101110.13;7397157;19;20038;-66
2022/05/04 12:11:34;;;;;;;3.72;3.00;;;;;;;21.91;33.97;101106.75;7397052;19;20458;-65